createdAt,value
2018-07-17T00:01:49.165Z,3.10
2018-07-17T00:04:17.392Z,3.93
2018-07-17T00:06:45.630Z,3.13
2018-07-17T00:09:13.836Z,3.70
2018-07-17T00:11:42.161Z,2.57
2018-07-17T00:14:10.411Z,2.90
2018-07-17T00:16:38.628Z,3.87
2018-07-17T00:19:06.846Z,2.80
2018-07-17T00:21:35.097Z,2.37
2018-07-17T00:24:03.341Z,2.33
2018-07-17T00:26:31.590Z,2.27
2018-07-17T00:28:59.819Z,4.10
2018-07-17T00:31:28.021Z,2.50
2018-07-17T00:33:56.240Z,3.00
2018-07-17T00:36:24.461Z,2.77
2018-07-17T00:38:52.673Z,2.40
2018-07-17T00:41:20.949Z,2.37
2018-07-17T00:43:49.157Z,3.83
2018-07-17T00:46:17.373Z,2.37
2018-07-17T00:48:45.624Z,2.70
2018-07-17T00:51:13.876Z,2.50
2018-07-17T00:53:42.079Z,2.77
2018-07-17T00:56:10.288Z,3.10
2018-07-17T00:58:38.541Z,5.10
2018-07-17T01:01:05.979Z,3.43
2018-07-17T01:03:39.421Z,24.33
2018-07-17T01:06:12.944Z,3.37
2018-07-17T01:08:46.500Z,3.00
2018-07-17T01:11:20.029Z,2.63
2018-07-17T01:13:56.368Z,2.53
2018-07-17T01:16:24.612Z,2.30
2018-07-17T01:18:52.821Z,2.60
2018-07-17T01:21:21.060Z,2.60
2018-07-17T01:23:49.277Z,2.53
2018-07-17T01:26:17.557Z,4.63
2018-07-17T01:28:45.814Z,2.80
2018-07-17T01:31:14.036Z,2.57
2018-07-17T01:33:42.254Z,2.57
2018-07-17T01:36:10.485Z,3.13
2018-07-17T01:38:38.717Z,3.77
2018-07-17T01:41:06.921Z,2.80
2018-07-17T01:43:35.269Z,3.50
2018-07-17T01:46:03.497Z,2.70
2018-07-17T01:48:31.742Z,2.50
2018-07-17T01:50:59.956Z,2.27
2018-07-17T01:53:28.165Z,2.47
2018-07-17T01:55:56.388Z,2.60
2018-07-17T01:58:24.609Z,2.60
2018-07-17T02:00:52.849Z,3.17
2018-07-17T02:03:21.291Z,3.30
2018-07-17T02:05:49.526Z,2.30
2018-07-17T02:08:17.746Z,2.43
2018-07-17T02:10:45.993Z,2.50
2018-07-17T02:13:14.208Z,2.90
2018-07-17T02:15:42.440Z,2.30
2018-07-17T02:18:10.657Z,4.90
2018-07-17T02:20:38.887Z,3.27
2018-07-17T02:23:07.108Z,2.50
2018-07-17T02:25:35.324Z,4.53
2018-07-17T02:28:03.597Z,2.60
2018-07-17T02:30:32.197Z,4.13
2018-07-17T02:33:00.566Z,2.90
2018-07-17T02:35:28.776Z,3.40
2018-07-17T02:37:57.011Z,3.60
2018-07-17T02:40:25.258Z,2.97
2018-07-17T02:42:53.577Z,3.83
2018-07-17T02:45:21.773Z,3.27
2018-07-17T02:47:50.002Z,3.70
2018-07-17T02:50:18.217Z,3.83
2018-07-17T02:52:46.513Z,4.83
2018-07-17T02:55:14.733Z,5.97
2018-07-17T02:57:42.973Z,4.60
2018-07-17T03:00:11.344Z,4.17
2018-07-17T03:02:39.595Z,5.13
2018-07-17T03:05:07.786Z,3.87
2018-07-17T03:07:36.033Z,3.60
2018-07-17T03:10:04.273Z,6.30
2018-07-17T03:12:32.474Z,3.60
2018-07-17T03:15:00.701Z,4.77
2018-07-17T03:17:28.933Z,4.40
2018-07-17T03:19:57.215Z,3.97
2018-07-17T03:22:25.441Z,3.73
2018-07-17T03:24:53.646Z,3.63
2018-07-17T03:27:21.854Z,3.17
2018-07-17T03:29:50.113Z,4.23
2018-07-17T03:32:18.330Z,3.83
2018-07-17T03:34:46.553Z,4.83
2018-07-17T03:37:14.753Z,4.27
2018-07-17T03:39:42.988Z,4.47
2018-07-17T03:42:11.225Z,3.60
2018-07-17T03:44:39.424Z,5.90
2018-07-17T03:47:07.662Z,4.27
2018-07-17T03:49:35.864Z,5.60
2018-07-17T03:52:04.130Z,3.60
2018-07-17T03:54:32.374Z,5.07
2018-07-17T03:57:00.629Z,3.80
2018-07-17T03:59:28.834Z,4.03
2018-07-17T04:01:57.057Z,5.17
2018-07-17T04:04:25.351Z,3.90
2018-07-17T04:06:53.570Z,4.37
2018-07-17T04:09:21.768Z,3.80
2018-07-17T04:11:49.969Z,3.73
2018-07-17T04:14:18.201Z,6.33
2018-07-17T04:16:51.149Z,4.03
2018-07-17T04:19:19.645Z,3.60
2018-07-17T04:21:48.041Z,4.00
2018-07-17T04:24:16.430Z,4.07
2018-07-17T04:26:44.705Z,3.77
2018-07-17T04:29:12.920Z,4.03
2018-07-17T04:31:41.705Z,3.60
2018-07-17T04:34:09.905Z,3.73
2018-07-17T04:36:38.152Z,4.57
2018-07-17T04:39:08.728Z,4.53
2018-07-17T04:41:37.405Z,3.90
2018-07-17T04:44:05.668Z,4.20
2018-07-17T04:46:34.194Z,3.73
2018-07-17T04:49:02.473Z,3.70
2018-07-17T04:51:30.880Z,4.53
2018-07-17T04:53:59.169Z,4.80
2018-07-17T04:56:27.409Z,4.00
2018-07-17T04:58:55.932Z,4.47
2018-07-17T05:01:24.248Z,4.73
2018-07-17T05:03:52.423Z,4.00
2018-07-17T05:06:20.809Z,6.07
2018-07-17T05:08:49.018Z,4.87
2018-07-17T05:11:17.405Z,6.37
2018-07-17T05:13:45.667Z,3.63
2018-07-17T05:16:13.979Z,6.53
2018-07-17T05:18:42.141Z,6.90
2018-07-17T05:21:11.229Z,5.30
2018-07-17T05:23:39.464Z,5.37
2018-07-17T05:26:07.767Z,4.60
2018-07-17T05:28:35.968Z,5.27
2018-07-17T05:31:04.201Z,5.07
2018-07-17T05:33:32.437Z,7.83
2018-07-17T05:36:00.665Z,4.40
2018-07-17T05:38:28.884Z,6.77
2018-07-17T05:40:57.116Z,5.27
2018-07-17T05:43:25.389Z,5.73
2018-07-17T05:45:53.608Z,5.93
2018-07-17T05:48:21.816Z,7.17
2018-07-17T05:50:50.070Z,4.50
2018-07-17T05:53:18.303Z,4.27
2018-07-17T05:55:46.534Z,5.00
2018-07-17T05:58:14.769Z,4.97
2018-07-17T06:00:42.989Z,4.77
2018-07-17T06:03:11.244Z,5.37
2018-07-17T06:05:39.476Z,5.57
2018-07-17T06:08:07.809Z,7.47
2018-07-17T06:10:36.018Z,6.77
2018-07-17T06:13:04.280Z,8.23
2018-07-17T06:15:32.473Z,7.97
2018-07-17T06:18:00.701Z,5.17
2018-07-17T06:20:28.936Z,5.73
2018-07-17T06:22:57.189Z,7.27
2018-07-17T06:25:25.417Z,7.77
2018-07-17T06:27:53.820Z,11.23
2018-07-17T06:30:22.024Z,7.80
2018-07-17T06:32:50.279Z,8.70
2018-07-17T06:35:18.644Z,7.30
2018-07-17T06:37:46.882Z,10.10
2018-07-17T06:40:15.105Z,7.87
2018-07-17T06:42:43.320Z,7.10
2018-07-17T06:45:11.589Z,7.87
2018-07-17T06:47:39.816Z,10.83
2018-07-17T06:50:08.063Z,9.00
2018-07-17T06:52:36.305Z,9.60
2018-07-17T06:55:04.577Z,12.13
2018-07-17T06:57:32.797Z,7.80
2018-07-17T07:00:01.017Z,7.97
2018-07-17T07:02:29.297Z,10.50
2018-07-17T07:04:57.513Z,18.83
2018-07-17T07:07:25.741Z,8.80
2018-07-17T07:09:53.964Z,6.77
2018-07-17T07:12:22.184Z,8.37
2018-07-17T07:14:50.412Z,6.97
2018-07-17T07:17:18.629Z,6.00
2018-07-17T07:19:46.868Z,9.40
2018-07-17T07:22:15.113Z,7.30
2018-07-17T07:24:43.516Z,13.60
2018-07-17T07:27:11.737Z,7.27
2018-07-17T07:29:40.010Z,10.53
2018-07-17T07:32:08.237Z,12.87
2018-07-17T07:34:36.578Z,7.13
2018-07-17T07:37:04.837Z,7.67
2018-07-17T07:39:33.061Z,6.47
2018-07-17T07:42:01.297Z,9.30
2018-07-17T07:44:29.523Z,7.73
2018-07-17T07:46:57.745Z,10.00
2018-07-17T07:49:26.129Z,7.07
2018-07-17T07:51:54.365Z,9.23
2018-07-17T07:54:22.689Z,9.20
2018-07-17T07:56:50.985Z,7.23
2018-07-17T07:59:19.211Z,16.87
2018-07-17T08:01:47.447Z,12.10
2018-07-17T08:04:15.738Z,8.27
2018-07-17T08:06:43.988Z,6.13
2018-07-17T08:09:12.209Z,8.97
2018-07-17T08:11:40.515Z,7.50
2018-07-17T08:14:08.829Z,6.00
2018-07-17T08:16:37.093Z,8.50
2018-07-17T08:19:05.328Z,10.70
2018-07-17T08:21:33.579Z,10.83
2018-07-17T08:24:01.848Z,8.37
2018-07-17T08:26:30.376Z,13.53
2018-07-17T08:28:58.637Z,6.77
2018-07-17T08:31:26.889Z,10.00
2018-07-17T08:33:55.200Z,10.33
2018-07-17T08:36:23.506Z,10.77
2018-07-17T08:38:51.709Z,9.47
2018-07-17T08:41:20.037Z,7.10
2018-07-17T08:43:48.261Z,10.40
2018-07-17T08:46:16.709Z,10.47
2018-07-17T08:48:44.990Z,8.30
2018-07-17T08:51:13.226Z,9.70
2018-07-17T08:53:41.432Z,8.50
2018-07-17T08:56:09.663Z,10.93
2018-07-17T08:58:37.906Z,10.07
2018-07-17T09:01:06.125Z,10.80
2018-07-17T09:03:34.375Z,12.63
2018-07-17T09:06:02.675Z,14.77
2018-07-17T09:08:30.969Z,11.30
2018-07-17T09:10:59.303Z,13.23
2018-07-17T09:13:27.519Z,11.40
2018-07-17T09:15:55.833Z,14.53
2018-07-17T09:18:24.045Z,13.63
2018-07-17T09:20:52.289Z,12.17
2018-07-17T09:23:20.556Z,17.87
2018-07-17T09:25:48.797Z,13.27
2018-07-17T09:28:17.039Z,12.83
2018-07-17T09:30:50.388Z,15.50
2018-07-17T09:33:18.613Z,16.27
2018-07-17T09:35:46.841Z,12.10
2018-07-17T09:38:15.053Z,20.63
2018-07-17T09:40:43.297Z,14.63
2018-07-17T09:43:11.540Z,13.77
2018-07-17T09:45:39.838Z,15.57
2018-07-17T09:48:08.073Z,21.90
2018-07-17T09:50:36.350Z,19.90
2018-07-17T09:53:04.560Z,13.03
2018-07-17T09:55:32.768Z,13.93
2018-07-17T09:58:01.233Z,13.37
2018-07-17T10:00:39.716Z,8.93
2018-07-17T10:03:07.993Z,9.03
2018-07-17T10:05:36.240Z,14.07
2018-07-17T10:08:04.495Z,9.17
2018-07-17T10:10:32.701Z,7.73
2018-07-17T10:13:00.917Z,8.40
2018-07-17T10:15:29.489Z,10.07
2018-07-17T10:17:57.973Z,9.87
2018-07-17T10:20:26.457Z,6.80
2018-07-17T10:22:54.728Z,10.53
2018-07-17T10:25:24.781Z,7.97
2018-07-17T10:27:53.059Z,8.17
2018-07-17T10:30:21.292Z,10.00
2018-07-17T10:32:49.529Z,7.87
2018-07-17T10:35:17.770Z,6.13
2018-07-17T10:37:45.988Z,6.37
2018-07-17T10:40:14.205Z,5.60
2018-07-17T10:42:42.425Z,5.57
2018-07-17T10:45:10.660Z,10.63
2018-07-17T10:47:38.920Z,6.23
2018-07-17T10:50:07.156Z,6.77
2018-07-17T10:52:35.413Z,8.60
2018-07-17T10:55:03.670Z,6.43
2018-07-17T10:57:31.881Z,8.43
2018-07-17T11:00:00.122Z,7.67
2018-07-17T11:02:28.320Z,7.63
2018-07-17T11:04:56.523Z,6.13
2018-07-17T11:07:24.777Z,9.63
2018-07-17T11:09:52.983Z,3.87
2018-07-17T11:12:21.220Z,5.50
2018-07-17T11:14:49.476Z,8.30
2018-07-17T11:17:17.696Z,3.23
2018-07-17T11:19:45.913Z,4.63
2018-07-17T11:22:14.145Z,4.27
2018-07-17T11:24:42.352Z,6.97
2018-07-17T11:27:10.579Z,3.30
2018-07-17T11:29:38.772Z,4.07
2018-07-17T11:32:07.007Z,3.97
2018-07-17T11:34:35.229Z,3.57
2018-07-17T11:37:03.457Z,3.40
2018-07-17T11:39:31.668Z,4.97
2018-07-17T11:41:59.881Z,2.67
2018-07-17T11:44:28.097Z,9.93
2018-07-17T11:46:56.317Z,4.23
2018-07-17T11:49:25.472Z,3.10
2018-07-17T11:51:53.709Z,5.60
2018-07-17T11:54:22.008Z,2.43
2018-07-17T11:56:50.234Z,4.20
2018-07-17T11:59:18.544Z,4.03
2018-07-17T12:01:46.661Z,6.17
2018-07-17T12:04:14.876Z,4.80
2018-07-17T12:06:43.121Z,4.33
2018-07-17T12:09:11.474Z,4.77
2018-07-17T12:11:40.381Z,6.27
2018-07-17T12:14:08.589Z,6.30
2018-07-17T12:16:36.865Z,3.67
2018-07-17T12:19:08.488Z,7.03
2018-07-17T12:21:36.710Z,2.40
2018-07-17T12:24:04.993Z,2.47
2018-07-17T12:26:33.279Z,5.97
2018-07-17T12:29:01.497Z,4.33
2018-07-17T12:31:29.737Z,6.80
2018-07-17T12:33:57.945Z,9.60
2018-07-17T12:36:26.205Z,3.53
2018-07-17T12:38:54.416Z,2.90
2018-07-17T12:41:22.656Z,3.50
2018-07-17T12:43:50.892Z,2.13
2018-07-17T12:46:19.157Z,2.40
2018-07-17T12:48:47.381Z,5.50
2018-07-17T12:51:15.582Z,7.77
2018-07-17T12:53:43.809Z,7.03
2018-07-17T12:56:12.061Z,5.30
2018-07-17T12:58:40.252Z,4.67
2018-07-17T13:01:08.458Z,5.47
2018-07-17T13:03:36.698Z,8.30
2018-07-17T13:06:04.917Z,8.60
2018-07-17T13:08:33.152Z,5.20
2018-07-17T13:11:01.364Z,2.83
2018-07-17T13:13:29.569Z,6.73
2018-07-17T13:15:57.824Z,7.40
2018-07-17T13:18:26.261Z,5.30
2018-07-17T13:20:54.473Z,5.13
2018-07-17T13:23:22.689Z,7.13
2018-07-17T13:25:50.948Z,7.80
2018-07-17T13:28:19.178Z,5.33
2018-07-17T13:30:47.395Z,7.30
2018-07-17T13:33:15.604Z,6.53
2018-07-17T13:35:43.828Z,6.90
2018-07-17T13:38:12.121Z,4.93
2018-07-17T13:40:40.345Z,5.30
2018-07-17T13:43:08.568Z,3.87
2018-07-17T13:45:36.779Z,5.47
2018-07-17T13:48:05.013Z,4.03
2018-07-17T13:50:33.258Z,6.83
2018-07-17T13:53:04.536Z,3.03
2018-07-17T13:55:32.742Z,4.03
2018-07-17T13:58:00.945Z,8.07
2018-07-17T14:00:29.170Z,4.87
2018-07-17T14:02:57.389Z,5.40
2018-07-17T14:05:25.636Z,4.17
2018-07-17T14:07:53.925Z,7.53
2018-07-17T14:10:22.189Z,9.53
2018-07-17T14:12:50.439Z,7.07
2018-07-17T14:15:18.662Z,5.30
2018-07-17T14:17:46.868Z,4.97
2018-07-17T14:20:15.139Z,2.30
2018-07-17T14:22:43.395Z,3.43
2018-07-17T14:25:11.610Z,4.07
2018-07-17T14:27:39.809Z,5.73
2018-07-17T14:30:08.076Z,4.40
2018-07-17T14:32:36.262Z,5.77
2018-07-17T14:35:05.142Z,3.00
2018-07-17T14:37:33.473Z,5.70
2018-07-17T14:40:01.717Z,2.70
2018-07-17T14:42:29.933Z,4.37
2018-07-17T14:44:58.214Z,3.50
2018-07-17T14:47:26.489Z,8.83
2018-07-17T14:49:54.709Z,4.40
2018-07-17T14:52:22.949Z,2.83
2018-07-17T14:54:51.253Z,5.63
2018-07-17T14:57:19.499Z,5.33
2018-07-17T14:59:47.761Z,9.00
2018-07-17T15:02:17.134Z,4.00
2018-07-17T15:04:45.332Z,6.70
2018-07-17T15:07:13.666Z,3.47
2018-07-17T15:09:41.892Z,4.20
2018-07-17T15:12:10.140Z,3.60
2018-07-17T15:14:39.425Z,3.43
2018-07-17T15:17:07.650Z,2.57
2018-07-17T15:19:35.872Z,4.43
2018-07-17T15:22:04.164Z,5.03
2018-07-17T15:24:32.361Z,6.80
2018-07-17T15:27:00.589Z,6.27
2018-07-17T15:29:28.797Z,6.13
2018-07-17T15:31:57.039Z,6.63
2018-07-17T15:34:25.263Z,7.27
2018-07-17T15:36:53.493Z,3.17
2018-07-17T15:39:21.712Z,4.50
2018-07-17T15:41:49.965Z,3.03
2018-07-17T15:44:18.221Z,2.60
2018-07-17T15:46:46.433Z,2.40
2018-07-17T15:49:14.652Z,4.23
2018-07-17T15:51:42.896Z,6.03
2018-07-17T15:54:11.199Z,3.07
2018-07-17T15:56:39.441Z,3.60
2018-07-17T15:59:07.657Z,2.80
2018-07-17T16:01:35.870Z,2.30
2018-07-17T16:04:04.209Z,3.00
2018-07-17T16:06:32.441Z,2.90
2018-07-17T16:09:00.769Z,4.57
2018-07-17T16:11:28.988Z,3.67
2018-07-17T16:13:57.527Z,4.03
2018-07-17T16:16:25.499Z,3.23
2018-07-17T16:18:53.786Z,6.30
2018-07-17T16:21:22.048Z,4.33
2018-07-17T16:23:50.315Z,5.40
2018-07-17T16:26:19.162Z,4.07
2018-07-17T16:28:47.376Z,7.50
2018-07-17T16:31:15.645Z,3.50
2018-07-17T16:33:43.880Z,8.03
2018-07-17T16:36:12.132Z,7.27
2018-07-17T16:38:40.576Z,7.53
2018-07-17T16:41:08.825Z,7.33
2018-07-17T16:43:37.060Z,6.50
2018-07-17T16:46:05.445Z,6.70
2018-07-17T16:48:33.683Z,5.67
2018-07-17T16:51:01.917Z,3.13
2018-07-17T16:53:30.153Z,4.03
2018-07-17T16:55:58.400Z,4.73
2018-07-17T16:58:26.637Z,5.20
2018-07-17T17:00:54.873Z,11.60
2018-07-17T17:03:23.064Z,4.03
2018-07-17T17:05:51.273Z,3.83
2018-07-17T17:08:19.506Z,3.43
2018-07-17T17:10:47.725Z,4.67
2018-07-17T17:13:15.932Z,5.10
2018-07-17T17:15:44.201Z,5.00
2018-07-17T17:18:12.404Z,4.37
2018-07-17T17:20:40.626Z,7.20
2018-07-17T17:23:08.853Z,3.40
2018-07-17T17:25:37.081Z,3.30
2018-07-17T17:28:05.443Z,6.57
2018-07-17T17:30:33.684Z,5.90
2018-07-17T17:33:01.973Z,4.03
2018-07-17T17:35:30.192Z,3.80
2018-07-17T17:37:58.522Z,11.90
2018-07-17T17:40:26.767Z,13.40
2018-07-17T17:42:54.969Z,9.37
2018-07-17T17:45:23.190Z,26.60
2018-07-17T17:47:51.417Z,11.53
2018-07-17T17:50:19.644Z,7.17
2018-07-17T17:52:47.864Z,7.23
2018-07-17T17:55:16.097Z,7.13
2018-07-17T17:57:44.365Z,6.67
2018-07-17T18:00:12.635Z,7.70
2018-07-17T18:02:40.860Z,9.90
2018-07-17T18:05:09.073Z,7.53
2018-07-17T18:07:37.293Z,7.37
2018-07-17T18:10:05.581Z,9.17
2018-07-17T18:12:33.806Z,7.53
2018-07-17T18:15:02.028Z,9.30
2018-07-17T18:17:30.269Z,6.97
2018-07-17T18:19:58.508Z,7.60
2018-07-17T18:22:26.737Z,7.20
2018-07-17T18:24:55.018Z,5.87
2018-07-17T18:27:23.228Z,5.93
2018-07-17T18:29:51.492Z,9.63
2018-07-17T18:32:19.709Z,8.13
2018-07-17T18:34:48.038Z,11.40
2018-07-17T18:37:16.497Z,7.93
2018-07-17T18:39:44.721Z,8.30
2018-07-17T18:42:13.024Z,7.33
2018-07-17T18:44:41.177Z,7.47
2018-07-17T18:47:09.405Z,10.03
2018-07-17T18:49:37.639Z,11.07
2018-07-17T18:52:05.963Z,10.33
2018-07-17T18:54:34.132Z,12.97
2018-07-17T18:57:02.374Z,10.70
2018-07-17T18:59:30.592Z,7.80
2018-07-17T19:01:58.805Z,10.43
2018-07-17T19:04:27.024Z,10.40
2018-07-17T19:06:55.237Z,8.50
2018-07-17T19:09:23.448Z,8.43
2018-07-17T19:11:51.705Z,6.40
2018-07-17T19:14:19.937Z,7.47
2018-07-17T19:16:48.212Z,7.60
2018-07-17T19:19:16.368Z,8.57
2018-07-17T19:21:44.572Z,6.40
2018-07-17T19:24:12.790Z,6.53
2018-07-17T19:26:41.113Z,6.97
2018-07-17T19:29:09.415Z,6.33
2018-07-17T19:31:37.630Z,6.27
2018-07-17T19:34:05.876Z,4.83
2018-07-17T19:36:34.152Z,5.03
2018-07-17T19:39:02.405Z,5.67
2018-07-17T19:41:30.632Z,5.30
2018-07-17T19:43:58.955Z,5.00
2018-07-17T19:46:27.163Z,5.83
2018-07-17T19:48:55.422Z,6.83
2018-07-17T19:51:23.617Z,4.67
2018-07-17T19:53:51.824Z,5.33
2018-07-17T19:56:20.076Z,4.20
2018-07-17T19:58:48.297Z,5.37
2018-07-17T20:01:16.506Z,6.87
2018-07-17T20:03:44.838Z,5.40
2018-07-17T20:06:13.072Z,5.80
2018-07-17T20:08:41.372Z,7.77
2018-07-17T20:11:09.497Z,6.00
2018-07-17T20:13:37.733Z,5.43
2018-07-17T20:16:05.965Z,5.07
2018-07-17T20:18:34.205Z,8.73
2018-07-17T20:21:02.673Z,5.60
2018-07-17T20:23:30.884Z,5.23
2018-07-17T20:25:59.136Z,5.30
2018-07-17T20:28:27.355Z,9.17
2018-07-17T20:30:55.568Z,6.47
2018-07-17T20:33:23.825Z,8.20
2018-07-17T20:35:52.041Z,7.07
2018-07-17T20:38:20.344Z,3.67
2018-07-17T20:40:48.610Z,3.93
2018-07-17T20:43:16.829Z,3.60
2018-07-17T20:45:45.033Z,5.93
2018-07-17T20:48:13.289Z,4.30
2018-07-17T20:50:41.512Z,5.53
2018-07-17T20:53:09.754Z,5.27
2018-07-17T20:55:37.982Z,4.43
2018-07-17T20:58:06.211Z,4.60
2018-07-17T21:00:34.465Z,5.43
2018-07-17T21:03:02.677Z,3.70
2018-07-17T21:05:31.049Z,4.03
2018-07-17T21:07:59.294Z,3.50
2018-07-17T21:10:27.518Z,5.53
2018-07-17T21:12:55.723Z,5.00
2018-07-17T21:15:23.960Z,7.23
2018-07-17T21:17:52.228Z,2.60
2018-07-17T21:20:20.461Z,3.53
2018-07-17T21:22:48.696Z,4.20
2018-07-17T21:25:16.926Z,2.70
2018-07-17T21:27:45.196Z,2.40
2018-07-17T21:30:13.501Z,2.60
2018-07-17T21:32:41.773Z,2.13
2018-07-17T21:35:09.992Z,2.87
2018-07-17T21:37:38.214Z,3.47
2018-07-17T21:40:06.509Z,4.60
2018-07-17T21:42:34.981Z,4.13
2018-07-17T21:45:03.237Z,1.83
2018-07-17T21:47:31.445Z,5.53
2018-07-17T21:49:59.663Z,4.60
2018-07-17T21:52:27.905Z,2.73
2018-07-17T21:54:56.201Z,2.57
2018-07-17T21:57:24.414Z,3.47
2018-07-17T21:59:52.625Z,3.13
2018-07-17T22:02:20.847Z,2.23
2018-07-17T22:04:49.072Z,2.33
2018-07-17T22:07:17.297Z,4.23
2018-07-17T22:09:45.529Z,7.10
2018-07-17T22:12:13.745Z,2.57
2018-07-17T22:14:41.980Z,3.27
2018-07-17T22:17:10.229Z,3.57
2018-07-17T22:19:38.441Z,2.00
2018-07-17T22:22:07.069Z,2.40
2018-07-17T22:24:35.277Z,4.00
2018-07-17T22:27:03.492Z,3.20
2018-07-17T22:29:31.704Z,2.60
2018-07-17T22:31:59.955Z,3.47
2018-07-17T22:34:28.205Z,4.73
2018-07-17T22:36:56.406Z,4.40
2018-07-17T22:39:24.629Z,2.57
2018-07-17T22:41:52.824Z,3.43
2018-07-17T22:44:21.068Z,4.00
2018-07-17T22:46:49.272Z,3.63
2018-07-17T22:49:20.732Z,3.53
2018-07-17T22:51:49.241Z,3.80
2018-07-17T22:54:17.467Z,6.90
2018-07-17T22:56:45.878Z,2.53
2018-07-17T22:59:14.076Z,3.47
2018-07-17T23:01:42.289Z,3.77
2018-07-17T23:04:10.526Z,5.10
2018-07-17T23:06:45.445Z,3.90
2018-07-17T23:09:13.657Z,7.07
2018-07-17T23:11:41.913Z,4.73
2018-07-17T23:14:10.240Z,3.77
2018-07-17T23:16:38.476Z,5.40
2018-07-17T23:19:07.025Z,2.87
2018-07-17T23:21:35.270Z,4.10
2018-07-17T23:24:03.638Z,4.90
2018-07-17T23:26:31.849Z,5.47
2018-07-17T23:29:00.233Z,4.43
2018-07-17T23:31:28.408Z,3.77
2018-07-17T23:33:56.666Z,6.97
2018-07-17T23:36:24.940Z,3.90
2018-07-17T23:38:53.157Z,4.83
2018-07-17T23:41:21.384Z,3.27
2018-07-17T23:43:49.667Z,4.80
2018-07-17T23:46:18.172Z,4.43
2018-07-17T23:48:46.345Z,3.20
2018-07-17T23:51:14.553Z,4.03
2018-07-17T23:53:42.782Z,6.17
2018-07-17T23:56:11.010Z,3.53
2018-07-17T23:58:39.392Z,5.90
